Gulkana Airport
PAGK : now visible

Airfield :











YOU CAN JOIN US ON...

 
LOGIN :

Register | Disclaimer

   EN    FR    IT 

 









Legend :    VFR   Marginal VFR   IFR   Intensive IFR   Very Intensive IFR
Visi :
Ceiling :
>= 8 km
>= 3000ft
5 to 8 km
1000 to 3000 ft
1500m to 5 km
500 to 1000 ft
800 to 1500m
200 to 500 ft
< 800m
< 200 ft
Symbols :   Thunderstorms  Fog  Heavy snow  Heavy precipitations  Wind > 20 kt






- Airport Elevation : 1586 ft
- IATA code : GKN


PAGK - Gulkana

CURRENT METAR :
  • 271353Z AUTO 02006KT 10SM BKN065 BKN080 M11/M12 A2955 RMK AO2 SLP043 T11061122 TSNO

EXPIRED METARs :
  • 271253Z AUTO 03003KT 10SM OVC065 M09/M12 A2956 RMK AO2 SLP046 T10941117 TSNO
  • 271153Z AUTO 00000KT 10SM CLR M08/M11 A2956 RMK AO2 SLP046 70011 T10831106 11033 21089 56015 TSNO

TAF PAGK
Valid from the 27 at 12:00 until the 28 at 12:00 UTC


271127Z 2712/2812 03006KT P6SM VCSH OVC060
FM280600 15003KT 6SM -SHSN OVC035
PAZA FIR / North America



MET'MAP, your aeronautical weather chart ! - Copyright ORBIFLY December 2007 - Disclaimer

ORBIFLY MET'MAP TEAM :

Programming & Development : Alexandra Zaïnal
Concept & original design : Baudouin d'Aumeries
Assistance for programming : Marc-Olivier Méhu
Technical & hardware support : Manuel Goepfert

Contact : metmap@orbifly.com




SOURCES & CREDITS :

   NOAA       Earth
Advisory